フランクフルト国際空港の過去48時間の天気

フランクフルト国際空港 (Frankfurt / M-Flughafen)

現在時刻: 2/21 04:47 CET (2/21 03:47 UTC) 以下の時間は現地時間です。

過去48時間のMETAR気象情報
時間 風向 風速(m/s) 視程 気温(℃) 湿度(%) 気圧(hPa) 天気現象
21 04:20 5 10km以上 3 81 1024
21 03:50 南西 4 10km以上 4 75 1023
21 03:20 西南西 5 10km以上 5 70 1022
21 02:50 西 6 10km以上 5 70 1022
21 02:20 西 7 10km以上 5 75 1021 周辺でしゅう雨
21 01:50 西 9 10km以上 5 81 1020 弱いしゅう雨
21 01:20 西 9 10km以上 5 81 1019 周辺でしゅう雨
21 00:50 西 12 10km以上 5 87 1018 しゅう雨
21 00:20 西 8 10km以上 7 76 1016
20 23:50 西 11 10km以上 7 81 1015 弱いしゅう雨
20 23:20 西南西 8 10km以上 8 81 1014 しゅう雨
20 22:50 南西 8 10km以上 8 76 1014 弱いしゅう雨
20 22:20 南西 9 10km以上 9 71 1014 弱い雨
20 21:50 南南西 9 10km以上 9 62 1014 弱いしゅう雨
20 21:20 南南西 9 10km以上 10 58 1014
20 20:50 南南西 9 10km以上 9 62 1014
EDDF 210320Z 19009KT 9999 FEW033 SCT045 03/M00 Q1024 NOSIG
EDDF 210250Z 22008KT 9999 FEW033 04/M00 Q1023 NOSIG
EDDF 210220Z 25010KT 220V280 9999 SCT033 05/M00 Q1022 NOSIG
EDDF 210150Z 27011KT 9999 SCT035 05/00 Q1022 NOSIG
EDDF 210120Z 27014KT 9999 VCSH FEW025CB 05/01 Q1021 NOSIG
EDDF 210050Z 26018G28KT 9999 -SHRA FEW011 SCT025CB 05/02 Q1020 NOSIG
EDDF 210020Z 26017KT 9999 VCSH FEW011 SCT020CB SCT049 05/02 Q1019 RESHRA NOSIG
EDDF 202350Z 27024G34KT 9999 SHRA FEW011 SCT020CB BKN045 05/03 Q1018 BECMG -SHRA
EDDF 202320Z 28015KT 9999 FEW018 FEW025CB SCT045 07/03 Q1016 NOSIG
EDDF 202250Z 27022G32KT 9999 -SHRA FEW018 SCT025CB BKN045 07/04 Q1015 RESHRA TEMPO 27025G40KT
EDDF 202220Z 24016KT 9999 SHRA BKN025CB 08/05 Q1014 TEMPO 27025G40KT
EDDF 202150Z 22015KT 9999 -SHRA BKN028CB 08/04 Q1014 TEMPO 27025G40KT SHRA
EDDF 202120Z 22017KT 9999 -RA BKN033 09/04 Q1014 TEMPO 27025G40KT SHRA
EDDF 202050Z 21017KT 9999 -SHRA FEW030CB BKN038 09/02 Q1014 TEMPO 23020G30KT SHRA
EDDF 202020Z 21018KT 9999 FEW030CB BKN048 10/02 Q1014 TEMPO 23020G30KT SHRA
EDDF 201950Z 21018KT 9999 BKN049 09/02 Q1014 NOSIG